Terminal Aerodrome Forecast
Issued by NWS

Home | Current Version | Previous Version | Text Only | Print | Product List | Glossary On
Versions: 1 2 3 4 5 6 7 8 9 10 11 12 13 14
000
FTUS41 KBTV 171735
TAFPBG
TAF
KPBG 171735Z 1718/1818 17012KT P6SM SCT200
     FM172300 16006KT P6SM OVC150
     FM181000 00000KT P6SM BKN045
     FM181400 30008KT P6SM SCT080
     FM181600 31012KT P6SM SCT060=

USA.gov is the U.S. government's official web portal to all federal, state and local government web resources and services.